sensor_id;sensor_type;location;lat;lon;timestamp;temperature;humidity
75380;HTU21D;65641;44.714;37.756;2023-07-29T00:00:24;22.42;53.35
75380;HTU21D;65641;44.714;37.756;2023-07-29T00:01:27;22.40;53.36
75380;HTU21D;65641;44.714;37.756;2023-07-29T00:02:31;22.41;53.35
75380;HTU21D;65641;44.714;37.756;2023-07-29T00:03:35;22.41;53.26
75380;HTU21D;65641;44.714;37.756;2023-07-29T00:04:39;22.39;53.39
75380;HTU21D;65641;44.714;37.756;2023-07-29T00:05:42;22.39;53.41
75380;HTU21D;65641;44.714;37.756;2023-07-29T00:06:46;22.39;53.34
75380;HTU21D;65641;44.714;37.756;2023-07-29T00:07:49;22.40;53.35
75380;HTU21D;65641;44.714;37.756;2023-07-29T00:08:53;22.38;53.43
75380;HTU21D;65641;44.714;37.756;2023-07-29T00:09:57;22.39;53.30
75380;HTU21D;65641;44.714;37.756;2023-07-29T00:11:01;22.38;53.40
75380;HTU21D;65641;44.714;37.756;2023-07-29T00:12:05;22.37;53.39
75380;HTU21D;65641;44.714;37.756;2023-07-29T00:13:10;22.37;53.41
75380;HTU21D;65641;44.714;37.756;2023-07-29T00:14:14;22.37;53.26
75380;HTU21D;65641;44.714;37.756;2023-07-29T00:15:17;22.37;53.49
75380;HTU21D;65641;44.714;37.756;2023-07-29T00:16:21;22.36;53.43
75380;HTU21D;65641;44.714;37.756;2023-07-29T00:17:25;22.37;53.46
75380;HTU21D;65641;44.714;37.756;2023-07-29T00:18:29;22.36;53.42
75380;HTU21D;65641;44.714;37.756;2023-07-29T00:19:32;22.35;53.39
75380;HTU21D;65641;44.714;37.756;2023-07-29T00:20:36;22.33;53.41
75380;HTU21D;65641;44.714;37.756;2023-07-29T00:21:40;22.35;53.45
75380;HTU21D;65641;44.714;37.756;2023-07-29T00:22:44;22.34;53.38
75380;HTU21D;65641;44.714;37.756;2023-07-29T00:23:48;22.34;53.53
75380;HTU21D;65641;44.714;37.756;2023-07-29T00:24:52;22.32;53.55
75380;HTU21D;65641;44.714;37.756;2023-07-29T00:26:00;22.33;53.66
75380;HTU21D;65641;44.714;37.756;2023-07-29T00:27:04;22.31;53.49
75380;HTU21D;65641;44.714;37.756;2023-07-29T00:28:07;22.32;53.62
75380;HTU21D;65641;44.714;37.756;2023-07-29T00:29:11;22.29;53.63
75380;HTU21D;65641;44.714;37.756;2023-07-29T00:30:14;22.29;53.68
75380;HTU21D;65641;44.714;37.756;2023-07-29T00:31:18;22.27;53.67
75380;HTU21D;65641;44.714;37.756;2023-07-29T00:32:22;22.28;53.77
75380;HTU21D;65641;44.714;37.756;2023-07-29T00:33:25;22.26;53.77
75380;HTU21D;65641;44.714;37.756;2023-07-29T00:34:29;22.27;53.84
75380;HTU21D;65641;44.714;37.756;2023-07-29T00:35:34;22.25;54.00
75380;HTU21D;65641;44.714;37.756;2023-07-29T00:36:38;22.25;53.86
75380;HTU21D;65641;44.714;37.756;2023-07-29T00:37:42;22.24;53.89
75380;HTU21D;65641;44.714;37.756;2023-07-29T00:38:47;22.23;53.92
75380;HTU21D;65641;44.714;37.756;2023-07-29T00:39:50;22.22;53.97
75380;HTU21D;65641;44.714;37.756;2023-07-29T00:40:55;22.21;54.08
75380;HTU21D;65641;44.714;37.756;2023-07-29T00:42:00;22.19;54.08
75380;HTU21D;65641;44.714;37.756;2023-07-29T00:43:03;22.18;54.11
75380;HTU21D;65641;44.714;37.756;2023-07-29T00:44:07;22.17;54.05
75380;HTU21D;65641;44.714;37.756;2023-07-29T00:45:12;22.17;54.20
75380;HTU21D;65641;44.714;37.756;2023-07-29T00:46:16;22.18;54.16
75380;HTU21D;65641;44.714;37.756;2023-07-29T00:47:21;22.16;54.33
75380;HTU21D;65641;44.714;37.756;2023-07-29T00:48:25;22.16;54.17
75380;HTU21D;65641;44.714;37.756;2023-07-29T00:49:31;22.14;54.22
75380;HTU21D;65641;44.714;37.756;2023-07-29T00:50:35;22.14;54.10
75380;HTU21D;65641;44.714;37.756;2023-07-29T00:51:39;22.14;54.35
75380;HTU21D;65641;44.714;37.756;2023-07-29T00:52:42;22.13;54.32
75380;HTU21D;65641;44.714;37.756;2023-07-29T00:53:46;22.16;54.26
75380;HTU21D;65641;44.714;37.756;2023-07-29T00:54:50;22.14;54.29
75380;HTU21D;65641;44.714;37.756;2023-07-29T00:55:55;22.13;54.39
75380;HTU21D;65641;44.714;37.756;2023-07-29T00:56:58;22.13;54.42
75380;HTU21D;65641;44.714;37.756;2023-07-29T00:58:02;22.13;54.41
75380;HTU21D;65641;44.714;37.756;2023-07-29T00:59:08;22.14;54.44
75380;HTU21D;65641;44.714;37.756;2023-07-29T01:00:12;22.11;54.36
75380;HTU21D;65641;44.714;37.756;2023-07-29T01:01:17;22.12;54.48
75380;HTU21D;65641;44.714;37.756;2023-07-29T01:02:21;22.11;54.47
75380;HTU21D;65641;44.714;37.756;2023-07-29T01:03:25;22.11;54.49
75380;HTU21D;65641;44.714;37.756;2023-07-29T01:04:31;22.11;54.37
75380;HTU21D;65641;44.714;37.756;2023-07-29T01:06:14;22.10;54.55
75380;HTU21D;65641;44.714;37.756;2023-07-29T01:08:45;22.08;54.63
75380;HTU21D;65641;44.714;37.756;2023-07-29T01:10:03;22.08;54.62
75380;HTU21D;65641;44.714;37.756;2023-07-29T01:12:28;22.06;54.67
75380;HTU21D;65641;44.714;37.756;2023-07-29T01:13:48;22.06;54.55
75380;HTU21D;65641;44.714;37.756;2023-07-29T01:15:18;22.06;54.73
75380;HTU21D;65641;44.714;37.756;2023-07-29T01:16:31;22.05;54.71
75380;HTU21D;65641;44.714;37.756;2023-07-29T01:17:43;22.04;54.76
75380;HTU21D;65641;44.714;37.756;2023-07-29T01:18:49;22.04;54.60
75380;HTU21D;65641;44.714;37.756;2023-07-29T01:20:14;22.03;54.82
75380;HTU21D;65641;44.714;37.756;2023-07-29T01:21:19;22.02;54.86
75380;HTU21D;65641;44.714;37.756;2023-07-29T01:22:24;22.01;54.86
75380;HTU21D;65641;44.714;37.756;2023-07-29T01:23:31;22.01;54.97
75380;HTU21D;65641;44.714;37.756;2023-07-29T01:24:35;21.97;55.00
75380;HTU21D;65641;44.714;37.756;2023-07-29T01:25:39;21.96;55.00
75380;HTU21D;65641;44.714;37.756;2023-07-29T01:26:43;21.96;55.10
75380;HTU21D;65641;44.714;37.756;2023-07-29T01:27:48;21.96;55.10
75380;HTU21D;65641;44.714;37.756;2023-07-29T01:28:56;21.94;55.13
75380;HTU21D;65641;44.714;37.756;2023-07-29T01:30:01;21.93;54.99
75380;HTU21D;65641;44.714;37.756;2023-07-29T01:31:44;21.91;55.29
75380;HTU21D;65641;44.714;37.756;2023-07-29T01:33:17;21.90;55.24
75380;HTU21D;65641;44.714;37.756;2023-07-29T01:34:32;21.89;55.28
75380;HTU21D;65641;44.714;37.756;2023-07-29T01:35:50;21.89;55.34
75380;HTU21D;65641;44.714;37.756;2023-07-29T01:36:57;21.88;55.36
75380;HTU21D;65641;44.714;37.756;2023-07-29T01:38:09;21.88;55.22
75380;HTU21D;65641;44.714;37.756;2023-07-29T01:39:17;21.85;55.36
75380;HTU21D;65641;44.714;37.756;2023-07-29T01:40:23;21.85;55.34
75380;HTU21D;65641;44.714;37.756;2023-07-29T01:41:30;21.84;55.49
75380;HTU21D;65641;44.714;37.756;2023-07-29T01:42:34;21.84;55.43
75380;HTU21D;65641;44.714;37.756;2023-07-29T01:43:38;21.83;55.53
75380;HTU21D;65641;44.714;37.756;2023-07-29T01:44:47;21.84;55.52
75380;HTU21D;65641;44.714;37.756;2023-07-29T01:45:51;21.82;55.61
75380;HTU21D;65641;44.714;37.756;2023-07-29T01:46:56;21.81;55.54
75380;HTU21D;65641;44.714;37.756;2023-07-29T01:47:59;21.83;55.58
75380;HTU21D;65641;44.714;37.756;2023-07-29T01:49:03;21.82;55.63
75380;HTU21D;65641;44.714;37.756;2023-07-29T01:50:07;21.82;55.55
75380;HTU21D;65641;44.714;37.756;2023-07-29T01:51:12;21.81;55.61
75380;HTU21D;65641;44.714;37.756;2023-07-29T01:52:16;21.82;55.63
75380;HTU21D;65641;44.714;37.756;2023-07-29T01:53:20;21.82;55.65
75380;HTU21D;65641;44.714;37.756;2023-07-29T01:54:23;21.83;55.58
75380;HTU21D;65641;44.714;37.756;2023-07-29T01:55:27;21.83;55.68
75380;HTU21D;65641;44.714;37.756;2023-07-29T01:56:31;21.84;55.68
75380;HTU21D;65641;44.714;37.756;2023-07-29T01:57:34;21.84;55.68
75380;HTU21D;65641;44.714;37.756;2023-07-29T01:58:38;21.83;55.68
75380;HTU21D;65641;44.714;37.756;2023-07-29T01:59:42;21.83;55.66
75380;HTU21D;65641;44.714;37.756;2023-07-29T02:00:45;21.84;55.75
75380;HTU21D;65641;44.714;37.756;2023-07-29T02:01:49;21.85;55.73
75380;HTU21D;65641;44.714;37.756;2023-07-29T02:02:53;21.84;55.67
75380;HTU21D;65641;44.714;37.756;2023-07-29T02:03:56;21.84;55.75
75380;HTU21D;65641;44.714;37.756;2023-07-29T02:05:00;21.85;55.52
75380;HTU21D;65641;44.714;37.756;2023-07-29T02:06:04;21.87;55.73
75380;HTU21D;65641;44.714;37.756;2023-07-29T02:07:07;21.85;55.69
75380;HTU21D;65641;44.714;37.756;2023-07-29T02:08:11;21.85;55.74
75380;HTU21D;65641;44.714;37.756;2023-07-29T02:09:15;21.87;55.78
75380;HTU21D;65641;44.714;37.756;2023-07-29T02:10:18;21.87;55.78
75380;HTU21D;65641;44.714;37.756;2023-07-29T02:11:22;21.87;55.73
75380;HTU21D;65641;44.714;37.756;2023-07-29T02:12:31;21.88;55.81
75380;HTU21D;65641;44.714;37.756;2023-07-29T02:13:35;21.87;55.68
75380;HTU21D;65641;44.714;37.756;2023-07-29T02:14:38;21.88;55.81
75380;HTU21D;65641;44.714;37.756;2023-07-29T02:15:42;21.89;55.65
75380;HTU21D;65641;44.714;37.756;2023-07-29T02:16:46;21.90;55.58
75380;HTU21D;65641;44.714;37.756;2023-07-29T02:18:09;21.89;55.78
75380;HTU21D;65641;44.714;37.756;2023-07-29T02:19:13;21.89;55.84
75380;HTU21D;65641;44.714;37.756;2023-07-29T02:20:16;21.90;55.71
75380;HTU21D;65641;44.714;37.756;2023-07-29T02:21:20;21.91;55.87
75380;HTU21D;65641;44.714;37.756;2023-07-29T02:22:23;21.90;55.84
75380;HTU21D;65641;44.714;37.756;2023-07-29T02:23:27;21.89;55.78
75380;HTU21D;65641;44.714;37.756;2023-07-29T02:24:31;21.91;55.93
75380;HTU21D;65641;44.714;37.756;2023-07-29T02:25:37;21.90;55.85
75380;HTU21D;65641;44.714;37.756;2023-07-29T02:26:41;21.91;55.86
75380;HTU21D;65641;44.714;37.756;2023-07-29T02:27:45;21.93;55.84
75380;HTU21D;65641;44.714;37.756;2023-07-29T02:28:49;21.93;55.87
75380;HTU21D;65641;44.714;37.756;2023-07-29T02:29:53;21.93;55.87
75380;HTU21D;65641;44.714;37.756;2023-07-29T02:32:14;21.94;55.86
75380;HTU21D;65641;44.714;37.756;2023-07-29T02:33:18;21.94;55.84
75380;HTU21D;65641;44.714;37.756;2023-07-29T02:34:22;21.95;55.74
75380;HTU21D;65641;44.714;37.756;2023-07-29T02:35:25;21.96;55.80
75380;HTU21D;65641;44.714;37.756;2023-07-29T02:36:29;21.96;55.84
75380;HTU21D;65641;44.714;37.756;2023-07-29T02:37:33;21.97;55.81
75380;HTU21D;65641;44.714;37.756;2023-07-29T02:38:37;21.98;55.87
75380;HTU21D;65641;44.714;37.756;2023-07-29T02:39:40;21.99;55.74
75380;HTU21D;65641;44.714;37.756;2023-07-29T02:40:44;21.98;55.87
75380;HTU21D;65641;44.714;37.756;2023-07-29T02:41:47;21.98;55.78
75380;HTU21D;65641;44.714;37.756;2023-07-29T02:42:52;21.99;55.79
75380;HTU21D;65641;44.714;37.756;2023-07-29T02:43:55;22.01;55.81
75380;HTU21D;65641;44.714;37.756;2023-07-29T02:44:59;22.01;55.86
75380;HTU21D;65641;44.714;37.756;2023-07-29T02:46:02;22.02;55.85
75380;HTU21D;65641;44.714;37.756;2023-07-29T02:47:06;22.01;55.86
75380;HTU21D;65641;44.714;37.756;2023-07-29T02:48:10;22.01;55.80
75380;HTU21D;65641;44.714;37.756;2023-07-29T02:49:13;22.02;55.90
75380;HTU21D;65641;44.714;37.756;2023-07-29T02:50:17;22.03;55.81
75380;HTU21D;65641;44.714;37.756;2023-07-29T02:51:21;22.04;55.81
75380;HTU21D;65641;44.714;37.756;2023-07-29T02:52:24;22.05;55.77
75380;HTU21D;65641;44.714;37.756;2023-07-29T02:53:28;22.07;55.77
75380;HTU21D;65641;44.714;37.756;2023-07-29T02:54:31;22.07;55.71
75380;HTU21D;65641;44.714;37.756;2023-07-29T02:55:38;22.08;55.63
75380;HTU21D;65641;44.714;37.756;2023-07-29T02:56:47;22.10;55.68
75380;HTU21D;65641;44.714;37.756;2023-07-29T02:57:51;22.11;55.65
75380;HTU21D;65641;44.714;37.756;2023-07-29T02:58:55;22.11;55.65
75380;HTU21D;65641;44.714;37.756;2023-07-29T03:00:04;22.12;55.62
75380;HTU21D;65641;44.714;37.756;2023-07-29T03:01:10;22.16;55.62
75380;HTU21D;65641;44.714;37.756;2023-07-29T03:02:14;22.16;55.60
75380;HTU21D;65641;44.714;37.756;2023-07-29T03:03:19;22.17;55.55
75380;HTU21D;65641;44.714;37.756;2023-07-29T03:04:23;22.19;55.52
75380;HTU21D;65641;44.714;37.756;2023-07-29T03:05:29;22.21;55.52
75380;HTU21D;65641;44.714;37.756;2023-07-29T03:06:37;22.21;55.43
75380;HTU21D;65641;44.714;37.756;2023-07-29T03:07:40;22.23;55.47
75380;HTU21D;65641;44.714;37.756;2023-07-29T03:08:44;22.25;55.52
75380;HTU21D;65641;44.714;37.756;2023-07-29T03:09:48;22.25;55.40
75380;HTU21D;65641;44.714;37.756;2023-07-29T03:10:52;22.27;55.37
75380;HTU21D;65641;44.714;37.756;2023-07-29T03:11:55;22.27;55.33
75380;HTU21D;65641;44.714;37.756;2023-07-29T03:13:00;22.29;55.36
75380;HTU21D;65641;44.714;37.756;2023-07-29T03:14:03;22.31;55.26
75380;HTU21D;65641;44.714;37.756;2023-07-29T03:15:07;22.34;55.26
75380;HTU21D;65641;44.714;37.756;2023-07-29T03:16:15;22.33;55.20
75380;HTU21D;65641;44.714;37.756;2023-07-29T03:17:26;22.36;55.17
75380;HTU21D;65641;44.714;37.756;2023-07-29T03:18:30;22.36;55.18
75380;HTU21D;65641;44.714;37.756;2023-07-29T03:19:33;22.39;55.15
75380;HTU21D;65641;44.714;37.756;2023-07-29T03:20:37;22.39;55.12
75380;HTU21D;65641;44.714;37.756;2023-07-29T03:21:40;22.39;55.07
75380;HTU21D;65641;44.714;37.756;2023-07-29T03:22:45;22.39;55.14
75380;HTU21D;65641;44.714;37.756;2023-07-29T03:23:49;22.41;55.08
75380;HTU21D;65641;44.714;37.756;2023-07-29T03:24:52;22.43;55.12
75380;HTU21D;65641;44.714;37.756;2023-07-29T03:25:57;22.42;55.11
75380;HTU21D;65641;44.714;37.756;2023-07-29T03:27:01;22.46;55.06
75380;HTU21D;65641;44.714;37.756;2023-07-29T03:28:05;22.47;55.02
75380;HTU21D;65641;44.714;37.756;2023-07-29T03:29:08;22.48;55.01
75380;HTU21D;65641;44.714;37.756;2023-07-29T03:30:12;22.49;55.00
75380;HTU21D;65641;44.714;37.756;2023-07-29T03:31:16;22.50;55.00
75380;HTU21D;65641;44.714;37.756;2023-07-29T03:32:20;22.50;55.00
75380;HTU21D;65641;44.714;37.756;2023-07-29T03:33:25;22.51;54.95
75380;HTU21D;65641;44.714;37.756;2023-07-29T03:34:29;22.52;54.92
75380;HTU21D;65641;44.714;37.756;2023-07-29T03:35:33;22.53;54.89
75380;HTU21D;65641;44.714;37.756;2023-07-29T03:36:36;22.55;54.87
75380;HTU21D;65641;44.714;37.756;2023-07-29T03:37:40;22.55;54.86
75380;HTU21D;65641;44.714;37.756;2023-07-29T03:38:44;22.57;54.89
75380;HTU21D;65641;44.714;37.756;2023-07-29T03:39:48;22.58;54.87
75380;HTU21D;65641;44.714;37.756;2023-07-29T03:40:52;22.58;54.81
75380;HTU21D;65641;44.714;37.756;2023-07-29T03:41:56;22.62;54.82
75380;HTU21D;65641;44.714;37.756;2023-07-29T03:43:00;22.62;54.74
75380;HTU21D;65641;44.714;37.756;2023-07-29T03:44:04;22.64;54.74
75380;HTU21D;65641;44.714;37.756;2023-07-29T03:45:08;22.65;54.75
75380;HTU21D;65641;44.714;37.756;2023-07-29T03:46:12;22.65;54.70
75380;HTU21D;65641;44.714;37.756;2023-07-29T03:47:17;22.68;54.68
75380;HTU21D;65641;44.714;37.756;2023-07-29T03:48:21;22.67;54.65
75380;HTU21D;65641;44.714;37.756;2023-07-29T03:49:25;22.70;54.61
75380;HTU21D;65641;44.714;37.756;2023-07-29T03:50:29;22.70;54.55
75380;HTU21D;65641;44.714;37.756;2023-07-29T03:51:33;22.71;54.59
75380;HTU21D;65641;44.714;37.756;2023-07-29T03:52:37;22.73;54.60
75380;HTU21D;65641;44.714;37.756;2023-07-29T03:53:40;22.75;54.55
75380;HTU21D;65641;44.714;37.756;2023-07-29T03:54:44;22.76;54.46
75380;HTU21D;65641;44.714;37.756;2023-07-29T03:55:47;22.76;54.56
75380;HTU21D;65641;44.714;37.756;2023-07-29T03:56:53;22.77;54.52
75380;HTU21D;65641;44.714;37.756;2023-07-29T03:57:58;22.78;54.57
75380;HTU21D;65641;44.714;37.756;2023-07-29T03:59:06;22.78;54.56
75380;HTU21D;65641;44.714;37.756;2023-07-29T04:00:10;22.80;54.46
75380;HTU21D;65641;44.714;37.756;2023-07-29T04:01:23;22.82;54.49
75380;HTU21D;65641;44.714;37.756;2023-07-29T04:02:27;22.83;54.40
75380;HTU21D;65641;44.714;37.756;2023-07-29T04:03:30;22.86;54.38
75380;HTU21D;65641;44.714;37.756;2023-07-29T04:04:34;22.87;54.33
75380;HTU21D;65641;44.714;37.756;2023-07-29T04:05:38;22.87;54.31
75380;HTU21D;65641;44.714;37.756;2023-07-29T04:06:42;22.88;54.29
75380;HTU21D;65641;44.714;37.756;2023-07-29T04:07:45;22.91;54.29
75380;HTU21D;65641;44.714;37.756;2023-07-29T04:08:49;22.93;54.28
75380;HTU21D;65641;44.714;37.756;2023-07-29T04:09:53;22.93;54.30
75380;HTU21D;65641;44.714;37.756;2023-07-29T04:10:57;22.93;54.27
75380;HTU21D;65641;44.714;37.756;2023-07-29T04:12:01;22.95;54.29
75380;HTU21D;65641;44.714;37.756;2023-07-29T04:13:05;22.97;54.23
75380;HTU21D;65641;44.714;37.756;2023-07-29T04:14:08;22.99;54.24
75380;HTU21D;65641;44.714;37.756;2023-07-29T04:15:12;23.00;54.18
75380;HTU21D;65641;44.714;37.756;2023-07-29T04:16:16;23.03;54.15
75380;HTU21D;65641;44.714;37.756;2023-07-29T04:17:20;23.03;54.14
75380;HTU21D;65641;44.714;37.756;2023-07-29T04:18:23;23.07;54.12
75380;HTU21D;65641;44.714;37.756;2023-07-29T04:19:27;23.07;54.11
75380;HTU21D;65641;44.714;37.756;2023-07-29T04:20:31;23.09;54.07
75380;HTU21D;65641;44.714;37.756;2023-07-29T04:21:35;23.11;54.07
75380;HTU21D;65641;44.714;37.756;2023-07-29T04:22:39;23.12;54.03
75380;HTU21D;65641;44.714;37.756;2023-07-29T04:23:43;23.13;54.03
75380;HTU21D;65641;44.714;37.756;2023-07-29T04:24:46;23.16;53.95
75380;HTU21D;65641;44.714;37.756;2023-07-29T04:25:50;23.17;53.92
75380;HTU21D;65641;44.714;37.756;2023-07-29T04:26:54;23.20;53.94
75380;HTU21D;65641;44.714;37.756;2023-07-29T04:27:58;23.22;53.91
75380;HTU21D;65641;44.714;37.756;2023-07-29T04:29:02;23.22;53.91
75380;HTU21D;65641;44.714;37.756;2023-07-29T04:30:06;23.24;53.85
75380;HTU21D;65641;44.714;37.756;2023-07-29T04:31:09;23.26;53.85
75380;HTU21D;65641;44.714;37.756;2023-07-29T04:32:13;23.28;53.84
75380;HTU21D;65641;44.714;37.756;2023-07-29T04:33:18;23.30;53.79
75380;HTU21D;65641;44.714;37.756;2023-07-29T04:34:22;23.31;53.81
75380;HTU21D;65641;44.714;37.756;2023-07-29T04:35:25;23.34;53.81
75380;HTU21D;65641;44.714;37.756;2023-07-29T04:36:29;23.36;53.81
75380;HTU21D;65641;44.714;37.756;2023-07-29T04:37:32;23.37;53.84
75380;HTU21D;65641;44.714;37.756;2023-07-29T04:38:37;23.38;53.76
75380;HTU21D;65641;44.714;37.756;2023-07-29T04:39:41;23.42;53.73
75380;HTU21D;65641;44.714;37.756;2023-07-29T04:40:44;23.42;53.66
75380;HTU21D;65641;44.714;37.756;2023-07-29T04:41:49;23.46;53.54
75380;HTU21D;65641;44.714;37.756;2023-07-29T04:42:52;23.50;53.52
75380;HTU21D;65641;44.714;37.756;2023-07-29T04:43:56;23.52;53.56
75380;HTU21D;65641;44.714;37.756;2023-07-29T04:45:00;23.54;53.44
75380;HTU21D;65641;44.714;37.756;2023-07-29T04:46:07;23.56;53.44
75380;HTU21D;65641;44.714;37.756;2023-07-29T04:47:14;23.59;53.36
75380;HTU21D;65641;44.714;37.756;2023-07-29T04:48:18;23.62;53.27
75380;HTU21D;65641;44.714;37.756;2023-07-29T04:49:21;23.65;53.23
75380;HTU21D;65641;44.714;37.756;2023-07-29T04:50:25;23.68;53.13
75380;HTU21D;65641;44.714;37.756;2023-07-29T04:51:32;23.68;53.10
75380;HTU21D;65641;44.714;37.756;2023-07-29T04:52:36;23.70;53.07
75380;HTU21D;65641;44.714;37.756;2023-07-29T04:53:39;23.75;53.02
75380;HTU21D;65641;44.714;37.756;2023-07-29T04:54:43;23.75;53.01
75380;HTU21D;65641;44.714;37.756;2023-07-29T04:55:46;23.79;52.99
75380;HTU21D;65641;44.714;37.756;2023-07-29T04:56:50;23.80;52.86
75380;HTU21D;65641;44.714;37.756;2023-07-29T04:57:54;23.83;52.83
75380;HTU21D;65641;44.714;37.756;2023-07-29T04:58:57;23.86;52.78
75380;HTU21D;65641;44.714;37.756;2023-07-29T05:00:02;23.87;52.76
75380;HTU21D;65641;44.714;37.756;2023-07-29T05:01:06;23.90;52.70
75380;HTU21D;65641;44.714;37.756;2023-07-29T05:02:10;23.94;52.62
75380;HTU21D;65641;44.714;37.756;2023-07-29T05:03:14;23.96;52.54
75380;HTU21D;65641;44.714;37.756;2023-07-29T05:04:18;23.98;52.49
75380;HTU21D;65641;44.714;37.756;2023-07-29T05:05:21;24.01;52.43
75380;HTU21D;65641;44.714;37.756;2023-07-29T05:06:25;24.03;52.37
75380;HTU21D;65641;44.714;37.756;2023-07-29T05:07:29;24.06;52.29
75380;HTU21D;65641;44.714;37.756;2023-07-29T05:08:32;24.11;52.24
75380;HTU21D;65641;44.714;37.756;2023-07-29T05:09:36;24.12;52.23
75380;HTU21D;65641;44.714;37.756;2023-07-29T05:10:40;24.14;52.17
75380;HTU21D;65641;44.714;37.756;2023-07-29T05:11:44;24.17;52.10
75380;HTU21D;65641;44.714;37.756;2023-07-29T05:12:52;24.20;52.09
75380;HTU21D;65641;44.714;37.756;2023-07-29T05:13:55;24.20;52.20
75380;HTU21D;65641;44.714;37.756;2023-07-29T05:14:59;24.25;52.13
75380;HTU21D;65641;44.714;37.756;2023-07-29T05:16:03;24.27;51.92
75380;HTU21D;65641;44.714;37.756;2023-07-29T05:17:08;24.29;51.85
75380;HTU21D;65641;44.714;37.756;2023-07-29T05:18:12;24.32;51.79
75380;HTU21D;65641;44.714;37.756;2023-07-29T05:19:15;24.35;51.68
75380;HTU21D;65641;44.714;37.756;2023-07-29T05:20:19;24.38;51.62
75380;HTU21D;65641;44.714;37.756;2023-07-29T05:21:23;24.40;51.55
75380;HTU21D;65641;44.714;37.756;2023-07-29T05:22:26;24.43;51.54
75380;HTU21D;65641;44.714;37.756;2023-07-29T05:23:30;24.45;51.53
75380;HTU21D;65641;44.714;37.756;2023-07-29T05:24:34;24.48;51.37
75380;HTU21D;65641;44.714;37.756;2023-07-29T05:25:37;24.51;51.29
75380;HTU21D;65641;44.714;37.756;2023-07-29T05:26:41;24.55;51.23
75380;HTU21D;65641;44.714;37.756;2023-07-29T05:27:44;24.56;51.19
75380;HTU21D;65641;44.714;37.756;2023-07-29T05:28:48;24.59;51.12
75380;HTU21D;65641;44.714;37.756;2023-07-29T05:29:51;24.61;51.06
75380;HTU21D;65641;44.714;37.756;2023-07-29T05:30:55;24.66;50.79
75380;HTU21D;65641;44.714;37.756;2023-07-29T05:31:59;24.70;50.80
75380;HTU21D;65641;44.714;37.756;2023-07-29T05:33:03;24.73;50.73
75380;HTU21D;65641;44.714;37.756;2023-07-29T05:34:08;24.75;50.53
75380;HTU21D;65641;44.714;37.756;2023-07-29T05:35:12;24.80;50.39
75380;HTU21D;65641;44.714;37.756;2023-07-29T05:36:15;24.86;50.15
75380;HTU21D;65641;44.714;37.756;2023-07-29T05:37:19;24.90;50.23
75380;HTU21D;65641;44.714;37.756;2023-07-29T05:38:26;24.94;50.04
75380;HTU21D;65641;44.714;37.756;2023-07-29T05:39:29;24.99;49.93
75380;HTU21D;65641;44.714;37.756;2023-07-29T05:40:35;25.02;49.89
75380;HTU21D;65641;44.714;37.756;2023-07-29T05:41:39;25.04;49.82
75380;HTU21D;65641;44.714;37.756;2023-07-29T05:42:43;25.07;49.67
75380;HTU21D;65641;44.714;37.756;2023-07-29T05:43:48;25.13;49.56
75380;HTU21D;65641;44.714;37.756;2023-07-29T05:44:51;25.15;49.59
75380;HTU21D;65641;44.714;37.756;2023-07-29T05:45:55;25.17;49.46
75380;HTU21D;65641;44.714;37.756;2023-07-29T05:46:59;25.19;49.38
75380;HTU21D;65641;44.714;37.756;2023-07-29T05:48:03;25.23;49.31
75380;HTU21D;65641;44.714;37.756;2023-07-29T05:49:07;25.28;49.10
75380;HTU21D;65641;44.714;37.756;2023-07-29T05:50:11;25.30;48.92
75380;HTU21D;65641;44.714;37.756;2023-07-29T05:51:15;25.35;48.84
75380;HTU21D;65641;44.714;37.756;2023-07-29T05:52:19;25.40;48.73
75380;HTU21D;65641;44.714;37.756;2023-07-29T05:53:23;25.44;48.74
75380;HTU21D;65641;44.714;37.756;2023-07-29T05:54:26;25.47;48.61
75380;HTU21D;65641;44.714;37.756;2023-07-29T05:55:30;25.52;48.55
75380;HTU21D;65641;44.714;37.756;2023-07-29T05:56:33;25.56;48.50
75380;HTU21D;65641;44.714;37.756;2023-07-29T05:57:37;25.61;48.38
75380;HTU21D;65641;44.714;37.756;2023-07-29T05:58:44;25.67;48.23
75380;HTU21D;65641;44.714;37.756;2023-07-29T05:59:48;25.74;48.03
75380;HTU21D;65641;44.714;37.756;2023-07-29T06:00:52;25.83;47.83
75380;HTU21D;65641;44.714;37.756;2023-07-29T06:01:56;25.91;47.61
75380;HTU21D;65641;44.714;37.756;2023-07-29T06:02:59;25.99;47.49
75380;HTU21D;65641;44.714;37.756;2023-07-29T06:04:03;26.04;47.31
75380;HTU21D;65641;44.714;37.756;2023-07-29T06:05:07;26.08;47.17
75380;HTU21D;65641;44.714;37.756;2023-07-29T06:06:11;26.15;47.07
75380;HTU21D;65641;44.714;37.756;2023-07-29T06:07:15;26.17;46.99
75380;HTU21D;65641;44.714;37.756;2023-07-29T06:08:19;26.20;46.87
75380;HTU21D;65641;44.714;37.756;2023-07-29T06:09:23;26.19;46.89
75380;HTU21D;65641;44.714;37.756;2023-07-29T06:10:26;26.17;46.89
75380;HTU21D;65641;44.714;37.756;2023-07-29T06:11:30;26.19;46.76
75380;HTU21D;65641;44.714;37.756;2023-07-29T06:12:34;26.19;46.97
75380;HTU21D;65641;44.714;37.756;2023-07-29T06:13:37;26.20;46.97
75380;HTU21D;65641;44.714;37.756;2023-07-29T06:14:41;26.21;46.89
75380;HTU21D;65641;44.714;37.756;2023-07-29T06:15:45;26.27;46.68
75380;HTU21D;65641;44.714;37.756;2023-07-29T06:16:48;26.35;46.55
75380;HTU21D;65641;44.714;37.756;2023-07-29T06:17:52;26.45;46.34
75380;HTU21D;65641;44.714;37.756;2023-07-29T06:18:59;26.49;46.04
75380;HTU21D;65641;44.714;37.756;2023-07-29T06:20:03;26.54;45.99
75380;HTU21D;65641;44.714;37.756;2023-07-29T06:21:07;26.56;45.91
75380;HTU21D;65641;44.714;37.756;2023-07-29T06:22:11;26.60;45.91
75380;HTU21D;65641;44.714;37.756;2023-07-29T06:23:15;26.65;45.76
75380;HTU21D;65641;44.714;37.756;2023-07-29T06:24:18;26.69;45.58
75380;HTU21D;65641;44.714;37.756;2023-07-29T06:25:22;26.73;45.43
75380;HTU21D;65641;44.714;37.756;2023-07-29T06:26:27;26.76;45.23
75380;HTU21D;65641;44.714;37.756;2023-07-29T06:27:30;26.78;45.28
75380;HTU21D;65641;44.714;37.756;2023-07-29T06:28:34;26.77;45.35
75380;HTU21D;65641;44.714;37.756;2023-07-29T06:29:37;26.73;45.27
75380;HTU21D;65641;44.714;37.756;2023-07-29T06:30:41;26.73;45.36
75380;HTU21D;65641;44.714;37.756;2023-07-29T06:31:45;26.75;45.33
75380;HTU21D;65641;44.714;37.756;2023-07-29T06:32:48;26.72;45.31
75380;HTU21D;65641;44.714;37.756;2023-07-29T06:33:52;26.73;45.35
75380;HTU21D;65641;44.714;37.756;2023-07-29T06:34:55;26.73;45.29
75380;HTU21D;65641;44.714;37.756;2023-07-29T06:35:59;26.73;45.12
75380;HTU21D;65641;44.714;37.756;2023-07-29T06:37:03;26.73;45.31
75380;HTU21D;65641;44.714;37.756;2023-07-29T06:38:07;26.73;45.36
75380;HTU21D;65641;44.714;37.756;2023-07-29T06:39:10;26.71;45.39
75380;HTU21D;65641;44.714;37.756;2023-07-29T06:40:14;26.67;45.45
75380;HTU21D;65641;44.714;37.756;2023-07-29T06:41:18;26.68;45.51